Flight Track Log - Related Links

Times and Time Zones

All times are in EDT time to prevent confusion due to time zone crossing. See the UAL262 flight status page for this flight to view local times or setup timezone preferences in your user account.


Time Position Orientation Groundspeed Altitude Reporting Facility
EDT Latitude Longitude Course Direction KTS MPH feet Rate Location/Type
Wed 01:49:50 AM 47.4239 -122.3100 179° South 173 199 1,300  Level Seattle Center
Wed 01:50:31 AM 47.3900 -122.3092 179° South 177 204 2,500 2,079 Climbing Seattle Center
Wed 01:51:31 AM 47.3281 -122.2994 174° South 236 272 4,800 2,628 Climbing Seattle Center
Wed 01:52:32 AM 47.3356 -122.1997 84° East 289 333 7,800 2,852 Climbing Seattle Center
Wed 01:53:33 AM 47.3933 -122.1092 47° Northeast 306 352 10,600 2,705 Climbing Seattle Center
Wed 01:54:34 AM 47.4478 -122.0078 52° Northeast 321 369 13,300 2,231 Climbing Seattle Center
Wed 01:55:34 AM 47.4414 -121.8775 94° East 319 367 15,100 1,636 Climbing Seattle Center
Wed 01:56:35 AM 47.4292 -121.7175 96° East 365 420 16,600 1,686 Climbing Seattle Center
Wed 01:57:35 AM 47.4272 -121.5728 91° East 376 433 18,500 1,770 Climbing Seattle Center
Wed 01:58:37 AM 47.4497 -121.4169 78° East 398 458 20,200 1,561 Climbing Seattle Center
Wed 01:59:38 AM 47.4664 -121.2531 81° East 407 468 21,700 1,339 Climbing Seattle Center
Wed 02:00:38 AM 47.4714 -121.0783 88° East 429 494 22,900 1,289 Climbing Seattle Center
Wed 02:01:39 AM 47.4783 -120.8969 87° East 446 513 24,300 1,426 Climbing Seattle Center
Wed 02:02:40 AM 47.4864 -120.6814 87° East 454 522 25,800 1,289 Climbing Seattle Center
Wed 02:03:40 AM 47.4928 -120.4900 87° East 467 537 26,900 1,041 Climbing Seattle Center
Wed 02:04:41 AM 47.4997 -120.2903 87° East 483 556 27,900 1,131 Climbing Seattle Center
Wed 02:05:42 AM 47.5069 -120.0869 87° East 493 567 29,200 1,091 Climbing Seattle Center
Wed 02:06:42 AM 47.5125 -119.8831 88° East 497 572 30,100 1,041 Climbing Seattle Center
Wed 02:07:43 AM 47.5178 -119.6767 88° East 501 577 31,300 1,091 Climbing Seattle Center
Wed 02:08:43 AM 47.5233 -119.4689 88° East 506 582 32,300 793 Climbing Seattle Center
Wed 02:09:44 AM 47.5283 -119.2575 88° East 514 592 32,900 344 Climbing Seattle Center
Wed 02:10:45 AM 47.5322 -119.0369 88° East 535 616 33,000 49 Climbing Seattle Center
Wed 02:11:46 AM 47.5372 -118.8106 88° East 552 635 33,000  Level Seattle Center
Wed 02:12:46 AM 47.5417 -118.5853 88° East 551 634 33,000 -50 Level Seattle Center
Wed 02:13:47 AM 47.5444 -118.3625 89° East 545 627 32,900 -50 Descending Seattle Center
Wed 02:14:47 AM 47.5489 -118.1372 88° East 548 631 32,900  Level Seattle Center
Wed 02:15:48 AM 47.5519 -117.9117 89° East 550 633 32,900 50 Level Seattle Center
Wed 02:16:48 AM 47.5539 -117.6858 89° East 551 634 33,000 50 Climbing Seattle Center
Wed 02:17:49 AM 47.5567 -117.4606 89° East 551 634 33,000 -49 Level Seattle Center
Wed 02:18:50 AM 47.5581 -117.2361 89° East 551 634 32,900  Descending Seattle Center
Wed 02:19:50 AM 47.5558 -116.9656 91° East 558 642 33,000 50 Climbing Seattle Center
Wed 02:20:51 AM 47.5600 -116.7556 88° East 555 639 33,000  Level Seattle Center
Wed 02:21:52 AM 47.5600 -116.5286 90° East 554 638 33,000  Level Seattle Center
Wed 02:22:52 AM 47.5592 -116.3022 90° East 554 638 33,000  Level Seattle Center
Wed 02:23:53 AM 47.5592 -116.0756 90° East 552 635 33,000 -50 Level Seattle Center
Wed 02:24:53 AM 47.5578 -115.8503 90° East 550 633 32,900 -50 Descending Seattle Center
Wed 02:25:54 AM 47.5567 -115.6100 90° East 551 634 32,900  Level Seattle Center
Wed 02:26:54 AM 47.5547 -115.3836 91° East 553 636 32,900 50 Level Seattle Center
Wed 02:27:55 AM 47.5528 -115.1572 91° East 554 638 33,000 49 Climbing Seattle Center
Wed 02:28:56 AM 47.5500 -114.9314 91° East 554 638 33,000  Level Seattle Center
Wed 02:29:54 AM 47.5453 -114.7036 92° East 558 642 33,000  Level Salt Lake Center
Wed 02:30:55 AM 47.5411 -114.4789 91° East 555 639 33,000 -49 Level Salt Lake Center
Wed 02:31:56 AM 47.5375 -114.2536 91° East 555 639 32,900 -50 Descending Salt Lake Center
Wed 02:32:56 AM 47.5311 -114.0261 92° East 559 643 32,900 50 Level Salt Lake Center
Wed 02:33:57 AM 47.5253 -113.7511 92° East 562 647 33,000 49 Climbing Salt Lake Center
Wed 02:34:58 AM 47.5192 -113.5228 92° East 561 646 33,000  Level Salt Lake Center
Wed 02:35:59 AM 47.5133 -113.2953 92° East 558 642 33,000 -50 Level Salt Lake Center
Wed 02:36:59 AM 47.5081 -113.0653 92° East 561 646 32,900  Descending Salt Lake Center
Wed 02:38:00 AM 47.5000 -112.8517 93° East 560 644 33,000 49 Climbing Salt Lake Center
Wed 02:39:01 AM 47.4919 -112.6261 93° East 553 636 33,000 -50 Level Salt Lake Center
Wed 02:40:01 AM 47.4847 -112.4050 93° East 546 628 32,900  Descending Salt Lake Center
Wed 02:41:02 AM 47.4758 -112.1792 93° East 550 633 33,000 49 Climbing Salt Lake Center
Wed 02:42:03 AM 47.4672 -111.9569 93° East 547 629 33,000  Level Salt Lake Center
Wed 02:43:04 AM 47.4575 -111.7361 94° East 545 627 33,000 -49 Level Salt Lake Center
Wed 02:44:05 AM 47.4461 -111.4722 94° East 544 626 32,900  Descending Salt Lake Center
Wed 02:45:05 AM 47.4361 -111.2542 94° East 547 629 33,000 50 Climbing Salt Lake Center
Wed 02:46:06 AM 47.4264 -111.0361 94° East 546 628 33,000  Level Salt Lake Center
Wed 02:47:07 AM 47.4158 -110.8156 94° East 545 627 33,000 -49 Level Salt Lake Center
Wed 02:48:08 AM 47.4047 -110.5933 94° East 547 629 32,900  Descending Salt Lake Center
Wed 02:49:09 AM 47.3925 -110.3717 95° East 545 627 33,000 49 Climbing Salt Lake Center
Wed 02:50:10 AM 47.3783 -110.1439 95° East 546 628 33,000  Level Salt Lake Center
Wed 02:51:10 AM 47.3661 -109.9267 95° East 548 631 33,000  Level Salt Lake Center
Wed 02:52:11 AM 47.3511 -109.6575 95° East 550 633 33,000 -49 Level Salt Lake Center
Wed 02:53:12 AM 47.3364 -109.4353 96° East 548 631 32,900  Descending Salt Lake Center
Wed 02:54:13 AM 47.3225 -109.2125 95° East 548 631 33,000 49 Climbing Salt Lake Center
Wed 02:55:14 AM 47.3072 -108.9892 96° East 550 633 33,000 -50 Level Salt Lake Center
Wed 02:56:14 AM 47.2925 -108.7658 95° East 551 634 32,900 -50 Descending Salt Lake Center
Wed 02:57:15 AM 47.2803 -108.5417 95° East 551 634 32,900  Level Salt Lake Center
Wed 02:58:16 AM 47.2636 -108.3189 96° East 550 633 32,900 49 Level Salt Lake Center
Wed 02:59:17 AM 47.2464 -108.0975 96° East 548 631 33,000 50 Climbing Salt Lake Center
Wed 03:00:17 AM 47.2297 -107.8753 96° East 548 631 33,000 -50 Level Salt Lake Center
Wed 03:01:18 AM 47.2119 -107.6553 97° East 546 628 32,900  Descending Salt Lake Center
Wed 03:02:19 AM 47.1939 -107.4133 96° East 548 631 33,000  Climbing Salt Lake Center
Wed 03:03:19 AM 47.1756 -107.1911 97° East 549 632 32,900  Descending Salt Lake Center
Wed 03:04:20 AM 47.1567 -106.9700 97° East 549 632 33,000  Climbing Salt Lake Center
Wed 03:05:21 AM 47.1367 -106.7497 98° East 546 628 32,900  Descending Salt Lake Center
Wed 03:06:21 AM 47.1178 -106.5297 97° East 546 628 33,000  Climbing Salt Lake Center
Wed 03:07:22 AM 47.0958 -106.3081 98° East 548 631 32,900  Descending Salt Lake Center
Wed 03:08:23 AM 47.0764 -106.0892 97° East 547 629 33,000 49 Climbing Salt Lake Center
Wed 03:09:24 AM 47.0553 -105.8689 98° East 547 629 33,000  Level Salt Lake Center
Wed 03:10:24 AM 47.0350 -105.6483 98° East 547 629 33,000  Level Salt Lake Center
Wed 03:11:25 AM 47.0131 -105.4300 98° East 547 629 33,000 -49 Level Salt Lake Center
Wed 03:12:26 AM 46.9919 -105.2125 98° East 545 627 32,900  Descending Salt Lake Center
Wed 03:13:26 AM 46.9711 -104.9950 98° East 544 626 33,000 50 Climbing Salt Lake Center
Wed 03:14:27 AM 46.9447 -104.7333 98° East 544 626 33,000  Level Salt Lake Center
Wed 03:15:28 AM 46.9217 -104.5167 99° East 544 626 33,000  Level Salt Lake Center
Wed 03:16:29 AM 46.8978 -104.2994 99° East 545 627 33,000  Level Salt Lake Center
Wed 03:17:30 AM 46.8750 -104.0819 99° East 545 627 33,000  Level Salt Lake Center
Wed 03:18:30 AM 46.8503 -103.8636 99° East 546 628 33,000  Level Salt Lake Center
Wed 03:19:31 AM 46.8258 -103.6458 99° East 547 629 33,000  Level Salt Lake Center
Wed 03:20:32 AM 46.8017 -103.4281 99° East 548 631 33,000  Level Salt Lake Center
Wed 03:21:23 AM 46.7833 -103.2583 99° East 547 629 33,000 161 Level Minneapolis Center
Wed 03:22:24 AM 46.7572 -103.0425 100° East 547 629 33,300 545 Climbing Minneapolis Center
Wed 03:23:24 AM 46.7161 -102.8303 106° East 551 634 34,100 843 Climbing Minneapolis Center
Wed 03:24:25 AM 46.6492 -102.5928 112° Southeast 536 617 35,000 446 Climbing Minneapolis Center
Wed 03:25:25 AM 46.5947 -102.3944 112° Southeast 532 612 35,000  Level Minneapolis Center
Wed 03:26:26 AM 46.5392 -102.1969 112° Southeast 531 611 35,000  Level Minneapolis Center
Wed 03:27:26 AM 46.4847 -101.9972 112° Southeast 533 613 35,000  Level Minneapolis Center
Wed 03:28:27 AM 46.4367 -101.8247 112° Southeast 531 611 35,000  Level Minneapolis Center
Wed 03:29:51 AM 46.3569 -101.5478 113° Southeast 532 612 35,000  Level Minneapolis Center
Wed 03:30:52 AM 46.2903 -101.3111 112° Southeast 530 610 35,000  Level Minneapolis Center
Wed 03:31:52 AM 46.2328 -101.1164 113° Southeast 528 608 35,000  Level Minneapolis Center
Wed 03:32:53 AM 46.1758 -100.9219 113° Southeast 526 605 35,000  Level Minneapolis Center
Wed 03:33:53 AM 46.1172 -100.7247 113° Southeast 531 611 35,000  Level Minneapolis Center
Wed 03:34:54 AM 46.0597 -100.5294 113° Southeast 531 611 35,000  Level Minneapolis Center
Wed 03:35:54 AM 46.0011 -100.3328 113° Southeast 531 611 35,000 942 Level Minneapolis Center
Wed 03:36:55 AM 45.9444 -100.1447 113° Southeast 520 598 36,900 992 Climbing Minneapolis Center
Wed 03:37:55 AM 45.8894 -99.9664 114° Southeast 494 568 37,000 50 Climbing Minneapolis Center
Wed 03:38:56 AM 45.8358 -99.7900 114° Southeast 485 558 37,000  Level Minneapolis Center
Wed 03:39:56 AM 45.7808 -99.6122 114° Southeast 485 558 37,000  Level Minneapolis Center
Wed 03:40:57 AM 45.7264 -99.4356 114° Southeast 484 557 37,000  Level Minneapolis Center
Wed 03:41:57 AM 45.6725 -99.2619 114° Southeast 480 552 37,000 149 Level Minneapolis Center
Wed 03:42:58 AM 45.6189 -99.0917 114° Southeast 474 545 37,300 942 Climbing Minneapolis Center
Wed 03:43:58 AM 45.5661 -98.9264 114° Southeast 468 539 38,900 843 Climbing Minneapolis Center
Wed 03:44:59 AM 45.5156 -98.7656 114° Southeast 454 522 39,000 50 Climbing Minneapolis Center
Wed 03:45:59 AM 45.4625 -98.6042 115° Southeast 450 518 39,000  Level Minneapolis Center
Wed 03:47:00 AM 45.4178 -98.4667 115° Southeast 450 518 39,000  Level Minneapolis Center
Wed 03:48:00 AM 45.3581 -98.2781 114° Southeast 452 520 39,000  Level Minneapolis Center
Wed 03:49:01 AM 45.3044 -98.1156 115° Southeast 454 522 39,000  Level Minneapolis Center
Wed 03:50:01 AM 45.2492 -97.9453 115° Southeast 457 526 39,000  Level Minneapolis Center
Wed 03:51:02 AM 45.1947 -97.7814 115° Southeast 461 531 39,000  Level Minneapolis Center
Wed 03:52:02 AM 45.1400 -97.6172 115° Southeast 463 533 39,000  Level Minneapolis Center
Wed 03:53:03 AM 45.0844 -97.4519 115° Southeast 466 536 39,000  Level Minneapolis Center
Wed 03:54:03 AM 45.0283 -97.2869 116° Southeast 467 537 39,000  Level Minneapolis Center
Wed 03:55:04 AM 44.9731 -97.1217 115° Southeast 468 539 39,000  Level Minneapolis Center
Wed 03:56:04 AM 44.9203 -96.9514 114° Southeast 473 544 39,000  Level Minneapolis Center
Wed 03:57:05 AM 44.8689 -96.7842 113° Southeast 468 539 39,000  Level Minneapolis Center
Wed 03:58:05 AM 44.8200 -96.6203 113° Southeast 457 526 39,000  Level Minneapolis Center
Wed 03:59:06 AM 44.7672 -96.4550 114° Southeast 462 532 39,000  Level Minneapolis Center
Wed 04:00:06 AM 44.7211 -96.2853 111° Southeast 463 533 39,000  Level Minneapolis Center
Wed 04:01:07 AM 44.6881 -96.1117 105° East 461 531 39,000  Level Minneapolis Center
Wed 04:02:07 AM 44.6608 -95.9358 102° East 460 529 39,000  Level Minneapolis Center
Wed 04:03:08 AM 44.6303 -95.7586 104° East 464 534 39,000  Level Minneapolis Center
Wed 04:04:08 AM 44.5975 -95.5906 105° East 451 519 39,000  Level Minneapolis Center
Wed 04:05:09 AM 44.5661 -95.4228 105° East 446 513 39,000  Level Minneapolis Center
Wed 04:06:09 AM 44.5325 -95.2511 105° East 452 520 39,000  Level Minneapolis Center
Wed 04:07:10 AM 44.4997 -95.0814 105° East 451 519 39,000  Level Minneapolis Center
Wed 04:08:10 AM 44.4689 -94.9114 104° East 450 518 39,000  Level Minneapolis Center
Wed 04:09:11 AM 44.4394 -94.7389 103° East 454 522 39,000  Level Minneapolis Center
Wed 04:10:11 AM 44.4008 -94.5753 108° East 460 529 39,000  Level Minneapolis Center
Wed 04:11:12 AM 44.3592 -94.4036 109° East 465 535 39,000  Level Minneapolis Center
Wed 04:12:12 AM 44.3072 -94.1961 109° East 473 544 39,000  Level Minneapolis Center
Wed 04:13:13 AM 44.2650 -94.0231 109° East 474 545 39,000  Level Minneapolis Center
Wed 04:14:13 AM 44.2225 -93.8522 109° East 472 543 39,000  Level Minneapolis Center
Wed 04:15:14 AM 44.1806 -93.6850 109° East 465 535 39,000  Level Minneapolis Center
Wed 04:16:14 AM 44.1400 -93.5200 109° East 457 526 39,000  Level Minneapolis Center
Wed 04:17:15 AM 44.0994 -93.3592 109° East 449 517 39,000  Level Minneapolis Center
Wed 04:18:15 AM 44.0589 -93.1986 109° East 445 512 39,000  Level Minneapolis Center
Wed 04:19:16 AM 44.0175 -93.0381 110° East 445 512 39,000  Level Minneapolis Center
Wed 04:20:17 AM 43.9769 -92.8783 109° East 442 509 39,000  Level Minneapolis Center
Wed 04:21:17 AM 43.9483 -92.7186 104° East 432 497 39,000  Level Minneapolis Center
Wed 04:22:18 AM 43.9264 -92.5575 101° East 429 494 39,000  Level Minneapolis Center
Wed 04:23:18 AM 43.9050 -92.3986 101° East 425 489 39,000  Level Minneapolis Center
Wed 04:24:19 AM 43.8831 -92.2386 101° East 424 488 39,000  Level Minneapolis Center
Wed 04:25:19 AM 43.8567 -92.0464 101° East 427 491 39,000  Level Minneapolis Center
Wed 04:26:20 AM 43.8331 -91.8842 101° East 431 496 39,000  Level Minneapolis Center
Wed 04:27:21 AM 43.8092 -91.7169 101° East 442 509 39,000  Level Minneapolis Center
Wed 04:28:21 AM 43.7894 -91.5719 101° East 451 519 39,000  Level Minneapolis Center
Wed 04:29:22 AM 43.7658 -91.4019 101° East 453 521 39,000  Level Minneapolis Center
Wed 04:30:22 AM 43.7358 -91.1964 101° East 456 525 39,000  Level Minneapolis Center
Wed 04:31:23 AM 43.7100 -91.0219 102° East 461 531 39,000  Level Minneapolis Center
Wed 04:32:23 AM 43.6825 -90.8450 102° East 470 541 39,000  Level Minneapolis Center
Wed 04:33:24 AM 43.6556 -90.6664 102° East 476 548 39,000 -149 Level Minneapolis Center
Wed 04:34:24 AM 43.6289 -90.4869 102° East 480 552 38,700 -1,140 Descending Minneapolis Center
Wed 04:35:25 AM 43.6017 -90.3092 102° East 476 548 36,700 -1,835 Descending Minneapolis Center
Wed 04:36:25 AM 43.5703 -90.1200 103° East 470 541 35,000 -843 Descending Minneapolis Center
Wed 04:37:26 AM 43.5419 -89.9408 102° East 478 550 35,000  Level Minneapolis Center
Wed 04:38:27 AM 43.5203 -89.7558 99° East 491 565 35,000 -50 Level Chicago Center
Wed 04:39:27 AM 43.5239 -89.5714 88° East 481 554 34,900  Descending Chicago Center
Wed 04:40:28 AM 43.5267 -89.3906 89° East 474 545 35,000 50 Climbing Chicago Center
Wed 04:41:28 AM 43.5281 -89.2075 89° East 477 549 35,000 50 Level Chicago Center
Wed 04:42:28 AM 43.5203 -89.0247 93° East 477 549 35,100  Climbing Chicago Center
Wed 04:43:29 AM 43.4878 -88.8483 104° East 477 549 35,000 -50 Descending Chicago Center
Wed 04:44:29 AM 43.4564 -88.6744 104° East 470 541 35,000 -50 Level Chicago Center
Wed 04:45:29 AM 43.4253 -88.5089 104° East 474 545 34,900  Descending Chicago Center
Wed 04:46:29 AM 43.3933 -88.3339 104° East 475 547 35,000 50 Climbing Chicago Center
Wed 04:47:30 AM 43.3617 -88.1628 104° East 467 537 35,000  Level Chicago Center
Wed 04:48:30 AM 43.3292 -87.9903 104° East 467 537 35,000  Level Chicago Center
Wed 04:49:30 AM 43.2961 -87.8178 105° East 468 539 35,000  Level Chicago Center
Wed 04:50:31 AM 43.2631 -87.6447 105° East 469 540 35,000  Level Chicago Center
Wed 04:51:31 AM 43.2292 -87.4708 105° East 472 543 35,000  Level Chicago Center
Wed 04:52:31 AM 43.1911 -87.2794 105° East 475 547 35,000  Level Chicago Center
Wed 04:53:32 AM 43.1581 -87.1064 105° East 473 544 35,000  Level Chicago Center
Wed 04:54:32 AM 43.1233 -86.9328 105° East 474 545 35,000  Level Chicago Center
Wed 04:55:32 AM 43.0872 -86.7586 106° East 477 549 35,000  Level Chicago Center
Wed 04:56:33 AM 43.0522 -86.5828 105° East 482 555 35,000  Level Chicago Center
Wed 04:57:33 AM 43.0150 -86.4039 106° East 490 564 35,000 50 Level Chicago Center
Wed 04:58:33 AM 42.9778 -86.2264 106° East 493 567 35,100  Climbing Chicago Center
Wed 04:59:34 AM 42.9386 -86.0497 107° East 498 573 35,000 -50 Descending Chicago Center
Wed 05:00:34 AM 42.9044 -85.8736 105° East 496 571 35,000  Level Chicago Center
Wed 05:01:35 AM 42.8675 -85.6961 106° East 493 567 35,000  Level Chicago Center
Wed 05:02:35 AM 42.8300 -85.5175 106° East 495 570 35,000  Level Chicago Center
Wed 05:03:35 AM 42.7911 -85.3389 106° East 494 568 35,000  Level Chicago Center
Wed 05:04:36 AM 42.7536 -85.1592 106° East 495 570 35,000  Level Chicago Center
Wed 05:05:36 AM 42.7142 -84.9792 107° East 498 573 35,000  Level Chicago Center
Wed 05:06:36 AM 42.6667 -84.7619 106° East 501 577 35,000  Level Chicago Center
Wed 05:07:37 AM 42.6247 -84.5817 107° East 501 577 35,000  Level Chicago Center
Wed 05:08:37 AM 42.5847 -84.3994 107° East 504 580 35,000  Level Chicago Center
Wed 05:09:38 AM 42.5431 -84.2172 107° East 507 583 35,000  Level Chicago Center
Wed 05:10:35 AM 42.4997 -84.0472 109° East 506 582 35,000  Level Cleveland Center
Wed 05:11:35 AM 42.4592 -83.8650 107° East 506 582 35,000  Level Cleveland Center
Wed 05:12:35 AM 42.4183 -83.6883 107° East 506 582 35,000  Level Cleveland Center
Wed 05:13:35 AM 42.3789 -83.5261 108° East 512 589 35,000  Level Cleveland Center
Wed 05:14:35 AM 42.3372 -83.3472 107° East 507 583 35,000  Level Cleveland Center
Wed 05:15:35 AM 42.2956 -83.1686 107° East 502 578 35,000  Level Cleveland Center
Wed 05:16:35 AM 42.2536 -82.9958 108° East 502 578 35,000  Level Cleveland Center
Wed 05:17:35 AM 42.2092 -82.8175 109° East 497 572 35,000  Level Cleveland Center
Wed 05:18:35 AM 42.1686 -82.6422 107° East 492 566 35,000  Level Cleveland Center
Wed 05:19:35 AM 42.1300 -82.4675 107° East 492 566 35,000  Level Cleveland Center
Wed 05:20:35 AM 42.0783 -82.3008 113° Southeast 487 560 35,000  Level Cleveland Center
Wed 05:21:35 AM 42.0394 -82.1125 105° East 481 554 35,000  Level Cleveland Center
Wed 05:22:35 AM 41.9936 -81.9408 110° East 481 554 35,000  Level Cleveland Center
Wed 05:24:35 AM 41.9136 -81.6156 108° East 487 560 35,000  Level Cleveland Center
Wed 05:25:35 AM 41.8692 -81.4419 109° East 487 560 35,000  Level Cleveland Center
Wed 05:26:35 AM 41.8267 -81.2769 109° East 477 549 35,000  Level Cleveland Center
Wed 05:27:35 AM 41.7753 -81.0900 110° East 477 549 35,000  Level Cleveland Center
Wed 05:28:35 AM 41.7322 -80.9197 109° East 477 549 35,000  Level Cleveland Center
Wed 05:29:35 AM 41.6867 -80.7500 110° East 482 555 35,000  Level Cleveland Center
Wed 05:30:35 AM 41.6431 -80.5775 109° East 488 562 35,000  Level Cleveland Center
Wed 05:31:35 AM 41.5972 -80.4111 110° East 488 562 35,000  Level Cleveland Center
Wed 05:32:35 AM 41.5531 -80.2419 109° East 488 562 35,000  Level Cleveland Center
Wed 05:33:35 AM 41.5086 -80.0758 110° East 488 562 35,000 -50 Level Cleveland Center
Wed 05:34:35 AM 41.4661 -79.9292 111° Southeast 483 556 34,900  Descending Cleveland Center
Wed 05:35:35 AM 41.4233 -79.7661 109° East 472 543 35,000 50 Climbing Cleveland Center
Wed 05:36:35 AM 41.3739 -79.5814 110° East 472 543 35,000  Level Cleveland Center
Wed 05:37:35 AM 41.3267 -79.4164 111° Southeast 472 543 35,000  Level Cleveland Center
Wed 05:38:35 AM 41.2833 -79.2706 112° Southeast 472 543 35,000  Level Cleveland Center
Wed 05:39:35 AM 41.2375 -79.1058 110° East 467 537 35,000  Level Cleveland Center
Wed 05:40:35 AM 41.1869 -78.9194 110° East 476 548 35,000  Level Cleveland Center
Wed 05:41:35 AM 41.1408 -78.7578 111° Southeast 481 554 35,000 -186 Level Cleveland Center
Wed 05:43:16 AM 41.0633 -78.4994 112° Southeast 477 549 34,500 -559 Descending New York Center
Wed 05:44:16 AM 41.0142 -78.3286 111° Southeast 478 550 33,500 -1,000 Descending New York Center
Wed 05:45:16 AM 40.9661 -78.1639 111° Southeast 483 556 32,500 -1,008 Descending New York Center
Wed 05:46:15 AM 40.9047 -78.0089 118° Southeast 483 556 31,500 -1,000 Descending New York Center
Wed 05:47:16 AM 40.8125 -77.8811 134° Southeast 478 550 30,500 -958 Descending New York Center
Wed 05:48:14 AM 40.7086 -77.7717 141° Southeast 471 542 29,600 -950 Descending New York Center
Wed 05:49:16 AM 40.6064 -77.6656 142° Southeast 476 548 28,600 -1,131 Descending New York Center
Wed 05:50:16 AM 40.4731 -77.5894 157° South 473 544 27,300 -1,785 Descending New York Center
Wed 05:51:17 AM 40.3475 -77.5281 160° South 480 552 25,000 -2,471 Descending New York Center
Wed 05:52:15 AM 40.2256 -77.4728 161° South 480 552 22,400 -2,673 Descending New York Center
Wed 05:54:39 AM 39.9500 -77.3500 161° South 420 483 16,000 -2,677 Descending Potomac TRACON
Wed 05:55:21 AM 39.8667 -77.3167 163° South 412 474 14,100 -1,667 Descending Potomac TRACON
Wed 05:56:27 AM 39.7667 -77.2667 159° South 386 444 13,000 -1,364 Descending Potomac TRACON
Wed 05:57:33 AM 39.6667 -77.3000 194° South 326 375 11,100 -1,524 Descending Potomac TRACON
Wed 05:58:33 AM 39.5833 -77.3333 197° South 311 358 9,800 -1,211 Descending Potomac TRACON
Wed 05:59:27 AM 39.5167 -77.3500 191° South 277 319 8,800 -1,176 Descending Potomac TRACON
Wed 06:00:15 AM 39.4500 -77.3500 180° South 276 318 7,800 -1,167 Descending Potomac TRACON
Wed 06:01:15 AM 39.3833 -77.3667 191° South 272 313 6,700 -1,100 Descending Potomac TRACON
Wed 06:02:15 AM 39.3000 -77.3667 180° South 271 312 5,600 -1,000 Descending Potomac TRACON
Wed 06:03:09 AM 39.2333 -77.3667 180° South 271 312 4,800 -789 Descending Potomac TRACON
Wed 06:04:09 AM 39.1667 -77.3500 169° South 275 316 4,100 -421 Descending Potomac TRACON
Wed 06:05:03 AM 39.0833 -77.3500 180° South 276 318 4,000 -53 Descending Potomac TRACON
Wed 06:06:03 AM 39.0167 -77.3500 180° South 275 316 4,000  Level Potomac TRACON
Wed 06:07:03 AM 38.9333 -77.3500 180° South 270 311 4,000  Level Potomac TRACON
Wed 06:08:03 AM 38.8833 -77.3500 180° South 225 259 4,000 -500 Level Potomac TRACON
Wed 06:09:03 AM 38.8167 -77.3667 191° South 212 244 3,000 -1,000 Descending Potomac TRACON

Login

Don't have an account? Register now (free) for customized features, flight alerts, and more!